createdAt,value
2019-02-17T00:00:26.314Z,-3.30
2019-02-17T00:02:54.770Z,-3.30
2019-02-17T00:05:23.259Z,-3.40
2019-02-17T00:07:51.786Z,-3.40
2019-02-17T00:10:20.327Z,-3.40
2019-02-17T00:12:48.800Z,-3.40
2019-02-17T00:15:18.074Z,-3.40
2019-02-17T00:17:46.529Z,-3.40
2019-02-17T00:20:14.951Z,-3.50
2019-02-17T00:22:43.430Z,-3.50
2019-02-17T00:25:11.961Z,-3.60
2019-02-17T00:27:40.418Z,-3.60
2019-02-17T00:30:12.772Z,-3.60
2019-02-17T00:32:41.275Z,-3.60
2019-02-17T00:35:10.171Z,-3.60
2019-02-17T00:37:38.597Z,-3.70
2019-02-17T00:40:08.196Z,-3.70
2019-02-17T00:42:37.114Z,-3.70
2019-02-17T00:45:07.527Z,-3.70
2019-02-17T00:47:36.003Z,-3.80
2019-02-17T00:50:06.783Z,-3.80
2019-02-17T00:52:35.218Z,-3.90
2019-02-17T00:55:04.438Z,-3.90
2019-02-17T00:57:32.869Z,-3.80
2019-02-17T01:00:01.346Z,-3.80
2019-02-17T01:02:29.794Z,-3.80
2019-02-17T01:04:58.243Z,-3.90
2019-02-17T01:07:26.911Z,-3.90
2019-02-17T01:09:55.383Z,-3.90
2019-02-17T01:12:23.803Z,-4.00
2019-02-17T01:14:52.263Z,-3.90
2019-02-17T01:17:20.699Z,-4.00
2019-02-17T01:19:49.151Z,-4.00
2019-02-17T01:22:18.882Z,-4.00
2019-02-17T01:24:47.395Z,-4.00
2019-02-17T01:27:15.827Z,-4.00
2019-02-17T01:29:44.287Z,-4.00
2019-02-17T01:32:12.733Z,-4.00
2019-02-17T01:34:41.179Z,-4.10
2019-02-17T01:37:09.602Z,-4.10
2019-02-17T01:39:38.046Z,-4.10
2019-02-17T01:42:06.478Z,-4.20
2019-02-17T01:44:34.927Z,-4.20
2019-02-17T01:47:03.371Z,-4.20
2019-02-17T01:49:31.821Z,-4.20
2019-02-17T01:52:00.520Z,-4.20
2019-02-17T01:54:28.990Z,-4.30
2019-02-17T01:56:57.492Z,-4.30
2019-02-17T01:59:30.600Z,-4.30
2019-02-17T02:01:56.080Z,-4.30
2019-02-17T02:04:24.546Z,-4.30
2019-02-17T02:06:52.988Z,-4.30
2019-02-17T02:09:21.412Z,-4.40
2019-02-17T02:11:49.927Z,-4.40
2019-02-17T02:14:18.367Z,-4.40
2019-02-17T02:16:46.802Z,-4.50
2019-02-17T02:19:15.235Z,-4.50
2019-02-17T02:21:43.691Z,-4.50
2019-02-17T02:24:12.115Z,-4.60
2019-02-17T02:26:40.590Z,-4.60
2019-02-17T02:29:09.022Z,-4.60
2019-02-17T02:31:37.454Z,-4.60
2019-02-17T02:34:05.897Z,-4.60
2019-02-17T02:36:34.418Z,-4.60
2019-02-17T02:39:04.214Z,-4.70
2019-02-17T02:41:34.982Z,-4.70
2019-02-17T02:44:02.874Z,-4.70
2019-02-17T02:46:31.327Z,-4.80
2019-02-17T02:48:59.777Z,-4.70
2019-02-17T02:51:28.213Z,-4.70
2019-02-17T02:53:56.635Z,-4.70
2019-02-17T02:56:25.107Z,-4.80
2019-02-17T02:58:53.539Z,-4.80
2019-02-17T03:01:21.984Z,-4.80
2019-02-17T03:03:50.421Z,-4.90
2019-02-17T03:06:23.330Z,-4.80
2019-02-17T03:08:51.765Z,-4.90
2019-02-17T03:11:20.192Z,-4.90
2019-02-17T03:13:48.640Z,-4.90
2019-02-17T03:16:17.077Z,-4.90
2019-02-17T03:18:45.548Z,-4.80
2019-02-17T03:21:13.975Z,-4.80
2019-02-17T03:23:42.422Z,-4.80
2019-02-17T03:26:10.853Z,-4.90
2019-02-17T03:28:39.302Z,-4.90
2019-02-17T03:31:07.729Z,-4.90
2019-02-17T03:33:36.174Z,-5.00
2019-02-17T03:36:04.598Z,-5.00
2019-02-17T03:38:33.062Z,-5.00
2019-02-17T03:41:01.827Z,-5.00
2019-02-17T03:43:30.268Z,-5.10
2019-02-17T03:45:58.727Z,-5.10
2019-02-17T03:48:27.152Z,-5.10
2019-02-17T03:50:55.591Z,-5.10
2019-02-17T03:53:24.057Z,-5.10
2019-02-17T03:55:52.486Z,-5.20
2019-02-17T03:58:20.937Z,-5.20
2019-02-17T04:00:49.361Z,-5.20
2019-02-17T04:03:17.829Z,-5.20
2019-02-17T04:05:46.265Z,-5.30
2019-02-17T04:08:14.695Z,-5.30
2019-02-17T04:10:43.138Z,-5.30
2019-02-17T04:13:11.563Z,-5.30
2019-02-17T04:15:40.021Z,-5.30
2019-02-17T04:18:08.437Z,-5.30
2019-02-17T04:20:36.904Z,-5.40
2019-02-17T04:23:05.368Z,-5.40
2019-02-17T04:25:33.855Z,-5.40
2019-02-17T04:28:02.351Z,-5.40
2019-02-17T04:30:30.778Z,-5.50
2019-02-17T04:32:59.207Z,-5.50
2019-02-17T04:35:27.735Z,-5.50
2019-02-17T04:37:56.160Z,-5.50
2019-02-17T04:40:24.620Z,-5.50
2019-02-17T04:47:49.281Z,-5.70
2019-02-17T04:50:17.727Z,-5.60
2019-02-17T04:52:46.152Z,-5.60
2019-02-17T04:55:14.607Z,-5.60
2019-02-17T04:57:43.030Z,-5.70
2019-02-17T05:00:11.627Z,-5.70
2019-02-17T05:02:40.064Z,-5.70
2019-02-17T05:05:08.802Z,-5.70
2019-02-17T05:07:37.281Z,-5.70
2019-02-17T05:10:06.530Z,-5.70
2019-02-17T05:12:34.991Z,-5.70
2019-02-17T05:15:03.898Z,-5.70
2019-02-17T05:17:32.343Z,-5.70
2019-02-17T05:20:00.772Z,-5.80
2019-02-17T05:22:29.234Z,-5.80
2019-02-17T05:24:57.646Z,-5.80
2019-02-17T05:27:26.118Z,-5.90
2019-02-17T05:29:54.692Z,-5.90
2019-02-17T05:32:23.136Z,-5.80
2019-02-17T05:34:51.576Z,-5.90
2019-02-17T05:37:20.031Z,-5.90
2019-02-17T05:39:48.450Z,-5.90
2019-02-17T05:42:16.915Z,-5.90
2019-02-17T05:44:45.340Z,-5.90
2019-02-17T05:47:13.854Z,-5.90
2019-02-17T05:49:42.281Z,-5.90
2019-02-17T05:52:10.752Z,-5.90
2019-02-17T05:54:39.256Z,-5.90
2019-02-17T05:57:07.695Z,-5.90
2019-02-17T05:59:36.135Z,-5.90
2019-02-17T06:02:04.563Z,-5.90
2019-02-17T06:04:33.023Z,-6.00
2019-02-17T06:07:01.452Z,-6.00
2019-02-17T06:09:30.967Z,-6.00
2019-02-17T06:11:59.438Z,-6.00
2019-02-17T06:14:27.888Z,-6.00
2019-02-17T06:16:56.327Z,-6.00
2019-02-17T06:19:24.966Z,-5.90
2019-02-17T06:21:53.391Z,-6.00
2019-02-17T06:24:21.839Z,-5.90
2019-02-17T06:26:50.262Z,-5.90
2019-02-17T06:29:18.722Z,-5.90
2019-02-17T06:31:47.149Z,-5.90
2019-02-17T06:34:15.590Z,-5.80
2019-02-17T06:36:44.037Z,-5.70
2019-02-17T06:39:12.473Z,-5.60
2019-02-17T06:41:40.889Z,-5.60
2019-02-17T06:44:09.343Z,-5.50
2019-02-17T06:46:39.408Z,-5.50
2019-02-17T06:49:07.840Z,-5.50
2019-02-17T06:51:36.282Z,-5.50
2019-02-17T06:54:04.708Z,-5.40
2019-02-17T06:56:40.819Z,-5.40
2019-02-17T06:59:09.249Z,-5.40
2019-02-17T07:01:37.703Z,-5.30
2019-02-17T07:04:06.215Z,-5.30
2019-02-17T07:06:36.321Z,-5.30
2019-02-17T07:09:06.227Z,-5.20
2019-02-17T07:11:34.673Z,-5.30
2019-02-17T07:14:04.639Z,-5.30
2019-02-17T07:16:33.087Z,-5.20
2019-02-17T07:19:01.519Z,-5.20
2019-02-17T07:21:30.079Z,-5.20
2019-02-17T07:23:58.603Z,-5.10
2019-02-17T07:26:27.048Z,-5.00
2019-02-17T07:28:55.479Z,-5.00
2019-02-17T07:31:23.932Z,-4.90
2019-02-17T07:33:52.370Z,-4.90
2019-02-17T07:36:22.042Z,-4.80
2019-02-17T07:38:50.692Z,-4.70
2019-02-17T07:41:19.233Z,-4.60
2019-02-17T07:43:47.674Z,-4.50
2019-02-17T07:46:16.115Z,-4.50
2019-02-17T07:48:44.547Z,-4.40
2019-02-17T07:51:12.994Z,-4.30
2019-02-17T07:53:41.522Z,-4.20
2019-02-17T07:56:09.975Z,-4.10
2019-02-17T07:58:38.428Z,-4.10
2019-02-17T08:01:07.386Z,-4.00
2019-02-17T08:03:35.942Z,-3.90
2019-02-17T08:06:04.448Z,-3.80
2019-02-17T08:08:32.890Z,-3.70
2019-02-17T08:11:03.930Z,-3.50
2019-02-17T08:13:31.583Z,-3.40
2019-02-17T08:16:00.007Z,-3.30
2019-02-17T08:18:28.451Z,-3.20
2019-02-17T08:20:56.885Z,-3.20
2019-02-17T08:23:25.342Z,-3.10
2019-02-17T08:25:53.776Z,-3.00
2019-02-17T08:28:22.227Z,-2.90
2019-02-17T08:30:50.651Z,-2.70
2019-02-17T08:33:19.107Z,-2.60
2019-02-17T08:35:47.559Z,-2.50
2019-02-17T08:38:15.991Z,-2.30
2019-02-17T08:40:44.423Z,-2.00
2019-02-17T08:43:12.894Z,-1.80
2019-02-17T08:45:41.325Z,-1.40
2019-02-17T08:48:09.791Z,-1.10
2019-02-17T08:50:38.206Z,-0.80
2019-02-17T08:53:06.671Z,-0.40
2019-02-17T08:55:35.100Z,-0.10
2019-02-17T08:58:03.535Z,0.20
2019-02-17T09:00:31.989Z,0.50
2019-02-17T09:03:00.398Z,0.80
2019-02-17T09:05:28.847Z,1.20
2019-02-17T09:07:57.283Z,1.70
2019-02-17T09:10:25.733Z,2.00
2019-02-17T09:12:54.181Z,2.40
2019-02-17T09:15:22.653Z,2.80
2019-02-17T09:17:51.160Z,2.90
2019-02-17T09:20:19.600Z,3.30
2019-02-17T09:22:48.098Z,3.40
2019-02-17T09:25:17.629Z,3.80
2019-02-17T09:27:46.059Z,4.00
2019-02-17T09:30:16.642Z,4.30
2019-02-17T09:32:45.084Z,4.70
2019-02-17T09:35:13.607Z,4.70
2019-02-17T09:37:42.026Z,5.20
2019-02-17T09:40:12.029Z,5.40
2019-02-17T09:42:40.462Z,5.50
2019-02-17T09:45:13.895Z,5.80
2019-02-17T09:47:42.327Z,6.20
2019-02-17T09:50:14.563Z,6.50
2019-02-17T09:52:42.990Z,6.70
2019-02-17T09:55:11.722Z,6.90
2019-02-17T09:57:40.164Z,7.00
2019-02-17T10:00:11.320Z,7.40
2019-02-17T10:02:39.905Z,7.50
2019-02-17T10:05:10.188Z,7.70
2019-02-17T10:07:38.640Z,7.90
2019-02-17T10:10:14.998Z,7.70
2019-02-17T10:12:43.471Z,8.00
2019-02-17T10:15:13.355Z,8.50
2019-02-17T10:17:41.861Z,8.70
2019-02-17T10:20:15.606Z,8.90
2019-02-17T10:22:44.070Z,9.30
2019-02-17T10:25:12.592Z,9.30
2019-02-17T10:27:41.037Z,9.60
2019-02-17T10:30:14.284Z,10.10
2019-02-17T10:32:42.815Z,10.20
2019-02-17T10:35:11.337Z,10.00
2019-02-17T10:37:39.786Z,10.20
2019-02-17T10:40:14.196Z,10.30
2019-02-17T10:42:42.654Z,10.60
2019-02-17T10:45:11.736Z,10.70
2019-02-17T10:47:40.183Z,11.10
2019-02-17T10:50:10.972Z,11.20
2019-02-17T10:52:39.439Z,11.10
2019-02-17T10:55:09.822Z,11.20
2019-02-17T10:57:38.275Z,11.60
2019-02-17T11:00:11.426Z,11.70
2019-02-17T11:02:46.716Z,11.90
2019-02-17T11:05:11.387Z,12.00
2019-02-17T11:07:39.857Z,12.10
2019-02-17T11:10:10.456Z,11.80
2019-02-17T11:12:38.945Z,11.80
2019-02-17T11:15:10.831Z,11.60
2019-02-17T11:17:39.399Z,11.90
2019-02-17T11:20:08.583Z,12.50
2019-02-17T11:22:37.030Z,12.50
2019-02-17T11:25:05.914Z,12.90
2019-02-17T11:27:34.359Z,13.10
2019-02-17T11:30:05.404Z,13.00
2019-02-17T11:32:33.622Z,13.10
2019-02-17T11:35:02.160Z,13.40
2019-02-17T11:37:30.568Z,13.40
2019-02-17T11:39:59.116Z,13.20
2019-02-17T11:42:27.578Z,13.20
2019-02-17T11:44:56.238Z,13.50
2019-02-17T11:47:24.935Z,13.60
2019-02-17T11:49:53.400Z,13.40
2019-02-17T11:52:21.837Z,13.50
2019-02-17T11:54:50.266Z,13.80
2019-02-17T11:57:18.722Z,13.70
2019-02-17T11:59:47.239Z,13.90
2019-02-17T12:02:24.641Z,14.00
2019-02-17T12:04:45.944Z,14.00
2019-02-17T12:07:14.378Z,14.00
2019-02-17T12:09:42.974Z,13.70
2019-02-17T12:12:13.612Z,13.90
2019-02-17T12:14:41.622Z,13.80
2019-02-17T12:17:10.078Z,14.30
2019-02-17T12:19:38.522Z,14.30
2019-02-17T12:22:08.636Z,14.30
2019-02-17T12:24:38.913Z,14.50
2019-02-17T12:27:09.146Z,14.60
2019-02-17T12:29:48.561Z,14.80
2019-02-17T12:32:18.802Z,14.90
2019-02-17T12:34:47.245Z,15.10
2019-02-17T12:37:15.698Z,15.30
2019-02-17T12:39:44.284Z,15.30
2019-02-17T12:42:12.844Z,15.40
2019-02-17T12:44:41.285Z,15.60
2019-02-17T12:47:09.739Z,15.70
2019-02-17T12:49:38.165Z,15.70
2019-02-17T12:52:06.639Z,15.70
2019-02-17T12:54:35.070Z,15.70
2019-02-17T12:57:03.607Z,15.90
2019-02-17T12:59:32.198Z,16.00
2019-02-17T13:02:00.660Z,16.20
2019-02-17T13:04:29.092Z,16.00
2019-02-17T13:06:57.547Z,16.00
2019-02-17T13:09:26.006Z,16.20
2019-02-17T13:11:54.430Z,16.40
2019-02-17T13:14:22.895Z,16.20
2019-02-17T13:16:51.331Z,16.20
2019-02-17T13:19:19.796Z,16.00
2019-02-17T13:21:48.314Z,16.20
2019-02-17T13:24:16.770Z,16.20
2019-02-17T13:26:45.210Z,16.20
2019-02-17T13:29:13.674Z,16.30
2019-02-17T13:31:42.111Z,16.60
2019-02-17T13:34:10.577Z,16.70
2019-02-17T13:36:39.005Z,16.80
2019-02-17T13:39:07.462Z,16.80
2019-02-17T13:41:35.880Z,16.40
2019-02-17T13:44:04.566Z,16.70
2019-02-17T13:46:32.996Z,16.90
2019-02-17T13:49:01.454Z,17.10
2019-02-17T13:51:29.882Z,17.20
2019-02-17T13:53:58.342Z,17.10
2019-02-17T13:56:26.780Z,17.00
2019-02-17T13:58:55.245Z,17.00
2019-02-17T14:01:23.673Z,16.60
2019-02-17T14:03:52.124Z,16.90
2019-02-17T14:06:20.564Z,16.90
2019-02-17T14:08:49.028Z,17.10
2019-02-17T14:11:17.498Z,17.10
2019-02-17T14:13:46.015Z,16.80
2019-02-17T14:16:14.442Z,16.80
2019-02-17T14:18:42.912Z,16.80
2019-02-17T14:21:11.354Z,16.70
2019-02-17T14:23:39.792Z,16.50
2019-02-17T14:26:08.589Z,16.20
2019-02-17T14:28:37.081Z,16.20
2019-02-17T14:31:06.532Z,16.30
2019-02-17T14:33:35.038Z,16.20
2019-02-17T14:36:03.663Z,16.10
2019-02-17T14:38:32.113Z,16.10
2019-02-17T14:41:00.573Z,16.00
2019-02-17T14:43:29.003Z,15.90
2019-02-17T14:45:57.469Z,15.90
2019-02-17T14:48:25.967Z,15.70
2019-02-17T14:50:54.447Z,15.50
2019-02-17T14:53:22.878Z,15.50
2019-02-17T14:55:51.364Z,15.30
2019-02-17T14:58:19.800Z,15.20
2019-02-17T15:00:48.280Z,15.10
2019-02-17T15:03:16.763Z,15.00
2019-02-17T15:05:45.219Z,14.90
2019-02-17T15:08:13.686Z,14.80
2019-02-17T15:10:42.119Z,14.70
2019-02-17T15:13:10.570Z,14.60
2019-02-17T15:15:39.031Z,14.60
2019-02-17T15:18:07.483Z,14.50
2019-02-17T15:20:35.920Z,14.30
2019-02-17T15:23:04.396Z,14.20
2019-02-17T15:25:32.833Z,14.10
2019-02-17T15:28:01.283Z,13.90
2019-02-17T15:30:29.739Z,13.70
2019-02-17T15:33:04.167Z,13.60
2019-02-17T15:35:28.536Z,13.50
2019-02-17T15:37:56.992Z,13.40
2019-02-17T15:40:25.489Z,13.20
2019-02-17T15:42:53.958Z,13.10
2019-02-17T15:45:22.394Z,13.00
2019-02-17T15:47:50.842Z,12.80
2019-02-17T15:50:19.274Z,12.70
2019-02-17T15:52:47.736Z,12.50
2019-02-17T15:55:16.157Z,12.30
2019-02-17T15:57:44.585Z,11.90
2019-02-17T16:00:18.014Z,11.50
2019-02-17T16:02:46.563Z,11.20
2019-02-17T16:05:15.068Z,10.90
2019-02-17T16:07:43.645Z,10.70
2019-02-17T16:10:16.481Z,10.40
2019-02-17T16:12:44.990Z,10.10
2019-02-17T16:15:19.109Z,9.90
2019-02-17T16:17:47.531Z,9.70
2019-02-17T16:20:16.048Z,9.50
2019-02-17T16:22:44.496Z,9.20
2019-02-17T16:25:13.029Z,8.90
2019-02-17T16:27:41.483Z,8.80
2019-02-17T16:30:20.151Z,8.70
2019-02-17T16:32:48.642Z,8.30
2019-02-17T16:35:17.153Z,8.20
2019-02-17T16:37:45.611Z,8.10
2019-02-17T16:40:16.402Z,7.90
2019-02-17T16:42:44.972Z,7.80
2019-02-17T16:45:16.466Z,7.60
2019-02-17T16:47:45.382Z,7.50
2019-02-17T16:50:24.998Z,7.30
2019-02-17T16:52:53.434Z,7.10
2019-02-17T16:55:21.951Z,7.00
2019-02-17T16:57:50.389Z,6.70
2019-02-17T17:00:23.367Z,6.40
2019-02-17T17:02:53.835Z,6.40
2019-02-17T17:05:23.310Z,6.20
2019-02-17T17:07:51.929Z,6.10
2019-02-17T17:10:20.616Z,5.80
2019-02-17T17:12:49.255Z,5.70
2019-02-17T17:15:18.102Z,5.60
2019-02-17T17:17:46.666Z,5.50
2019-02-17T17:20:22.327Z,5.30
2019-02-17T17:22:50.915Z,5.20
2019-02-17T17:25:19.721Z,5.10
2019-02-17T17:27:48.179Z,4.90
2019-02-17T17:30:18.617Z,4.70
2019-02-17T17:32:47.074Z,4.50
2019-02-17T17:35:15.560Z,4.40
2019-02-17T17:37:44.080Z,4.30
2019-02-17T17:40:14.725Z,4.20
2019-02-17T17:42:43.178Z,4.00
2019-02-17T17:45:16.832Z,4.00
2019-02-17T17:47:45.267Z,3.90
2019-02-17T17:50:15.030Z,3.70
2019-02-17T17:52:43.490Z,3.70
2019-02-17T17:55:13.182Z,3.50
2019-02-17T17:57:41.858Z,3.40
2019-02-17T18:00:16.505Z,3.30
2019-02-17T18:02:44.956Z,3.10
2019-02-17T18:05:13.638Z,3.00
2019-02-17T18:07:42.082Z,2.90
2019-02-17T18:10:12.763Z,2.80
2019-02-17T18:12:41.220Z,2.70
2019-02-17T18:15:12.188Z,2.60
2019-02-17T18:17:40.610Z,2.60
2019-02-17T18:20:12.234Z,2.50
2019-02-17T18:22:40.663Z,2.40
2019-02-17T18:25:11.579Z,2.30
2019-02-17T18:27:40.016Z,2.20
2019-02-17T18:30:11.688Z,2.20
2019-02-17T18:32:40.175Z,2.10
2019-02-17T18:35:18.830Z,2.00
2019-02-17T18:37:39.243Z,1.90
2019-02-17T18:40:18.285Z,1.80
2019-02-17T18:42:46.774Z,1.80
2019-02-17T18:45:16.376Z,1.60
2019-02-17T18:47:44.887Z,1.50
2019-02-17T18:50:17.522Z,1.50
2019-02-17T18:52:45.966Z,1.40
2019-02-17T18:55:14.939Z,1.40
2019-02-17T18:57:50.216Z,1.30
2019-02-17T19:00:16.456Z,1.20
2019-02-17T19:02:44.882Z,1.10
2019-02-17T19:05:13.456Z,1.00
2019-02-17T19:07:41.876Z,0.90
2019-02-17T19:10:14.647Z,0.90
2019-02-17T19:12:43.303Z,0.80
2019-02-17T19:15:14.266Z,0.70
2019-02-17T19:17:42.691Z,0.60
2019-02-17T19:20:14.132Z,0.60
2019-02-17T19:22:42.557Z,0.50
2019-02-17T19:25:11.036Z,0.50
2019-02-17T19:27:39.467Z,0.40
2019-02-17T19:30:15.513Z,0.40
2019-02-17T19:32:44.277Z,0.30
2019-02-17T19:35:14.572Z,0.30
2019-02-17T19:37:43.071Z,0.30
2019-02-17T19:40:13.365Z,0.20
2019-02-17T19:42:42.024Z,0.10
2019-02-17T19:45:15.425Z,0.10
2019-02-17T19:47:43.887Z,0.00
2019-02-17T19:50:13.972Z,0.00
2019-02-17T19:52:42.435Z,-0.10
2019-02-17T19:55:12.187Z,-0.10
2019-02-17T19:57:40.705Z,-0.20
2019-02-17T20:00:12.325Z,-0.20
2019-02-17T20:03:00.308Z,-0.30
2019-02-17T20:05:30.448Z,-0.40
2019-02-17T20:07:58.935Z,-0.50
2019-02-17T20:10:27.471Z,-0.50
2019-02-17T20:12:56.387Z,-0.50
2019-02-17T20:15:26.552Z,-0.50
2019-02-17T20:17:55.046Z,-0.60
2019-02-17T20:20:23.550Z,-0.60
2019-02-17T20:22:52.007Z,-0.60
2019-02-17T20:25:20.439Z,-0.70
2019-02-17T20:27:48.908Z,-0.70
2019-02-17T20:30:17.350Z,-0.80
2019-02-17T20:32:45.824Z,-0.80
2019-02-17T20:35:14.314Z,-0.90
2019-02-17T20:37:42.755Z,-0.90
2019-02-17T20:40:16.062Z,-0.90
2019-02-17T20:42:44.499Z,-1.00
2019-02-17T20:45:13.209Z,-1.00
2019-02-17T20:47:41.650Z,-1.00
2019-02-17T20:50:12.818Z,-1.10
2019-02-17T20:52:41.263Z,-1.10
2019-02-17T20:55:11.468Z,-1.10
2019-02-17T20:57:39.893Z,-1.10
2019-02-17T21:00:13.549Z,-1.20
2019-02-17T21:02:42.104Z,-1.30
2019-02-17T21:05:11.099Z,-1.30
2019-02-17T21:07:39.550Z,-1.40
2019-02-17T21:10:10.526Z,-1.30
2019-02-17T21:12:39.103Z,-1.40
2019-02-17T21:15:16.509Z,-1.50
2019-02-17T21:17:44.945Z,-1.50
2019-02-17T21:20:13.683Z,-1.60
2019-02-17T21:22:42.114Z,-1.60
2019-02-17T21:25:12.114Z,-1.60
2019-02-17T21:27:40.617Z,-1.70
2019-02-17T21:30:14.735Z,-1.70
2019-02-17T21:32:43.240Z,-1.70
2019-02-17T21:35:13.632Z,-1.70
2019-02-17T21:37:42.063Z,-1.80
2019-02-17T21:40:12.462Z,-1.80
2019-02-17T21:42:40.951Z,-1.80
2019-02-17T21:45:13.687Z,-1.80
2019-02-17T21:47:42.186Z,-1.90
2019-02-17T21:50:14.588Z,-1.90
2019-02-17T21:52:43.083Z,-1.90
2019-02-17T21:55:12.888Z,-1.90
2019-02-17T21:57:41.390Z,-1.90
2019-02-17T22:00:20.604Z,-2.00
2019-02-17T22:02:49.091Z,-2.00
2019-02-17T22:05:17.611Z,-2.10
2019-02-17T22:07:46.038Z,-2.10
2019-02-17T22:10:16.508Z,-2.10
2019-02-17T22:12:44.994Z,-2.10
2019-02-17T22:15:18.015Z,-2.10
2019-02-17T22:17:46.459Z,-2.20
2019-02-17T22:20:15.159Z,-2.20
2019-02-17T22:22:43.670Z,-2.20
2019-02-17T22:25:13.934Z,-2.30
2019-02-17T22:27:42.400Z,-2.30
2019-02-17T22:30:13.912Z,-2.30
2019-02-17T22:32:42.427Z,-2.30
2019-02-17T22:35:11.091Z,-2.40
2019-02-17T22:37:39.579Z,-2.40
2019-02-17T22:40:14.878Z,-2.50
2019-02-17T22:42:43.341Z,-2.40
2019-02-17T22:45:12.635Z,-2.50
2019-02-17T22:47:41.283Z,-2.50
2019-02-17T22:50:14.362Z,-2.50
2019-02-17T22:52:44.150Z,-2.60
2019-02-17T22:55:13.528Z,-2.60
2019-02-17T22:57:42.077Z,-2.60
2019-02-17T23:00:30.383Z,-2.60
2019-02-17T23:02:59.019Z,-2.60
2019-02-17T23:05:27.443Z,-2.60
2019-02-17T23:07:55.914Z,-2.60
2019-02-17T23:10:24.417Z,-2.70
2019-02-17T23:12:52.843Z,-2.70
2019-02-17T23:15:21.284Z,-2.80
2019-02-17T23:17:49.735Z,-2.80
2019-02-17T23:20:18.174Z,-2.80
2019-02-17T23:22:46.626Z,-2.90
2019-02-17T23:25:15.294Z,-2.90
2019-02-17T23:27:43.737Z,-2.90
2019-02-17T23:30:12.322Z,-3.00
2019-02-17T23:32:40.747Z,-2.90
2019-02-17T23:35:09.198Z,-2.90
2019-02-17T23:37:37.622Z,-3.00
2019-02-17T23:40:09.167Z,-3.10
2019-02-17T23:42:37.665Z,-3.10
2019-02-17T23:45:08.719Z,-3.10
2019-02-17T23:47:37.165Z,-3.10
2019-02-17T23:50:07.940Z,-3.10
2019-02-17T23:52:36.367Z,-3.10
2019-02-17T23:55:05.255Z,-3.10
2019-02-17T23:57:33.682Z,-3.10
